sensor_id;sensor_type;location;lat;lon;timestamp;P1;durP1;ratioP1;P2;durP2;ratioP2
73283;SDS011;61519;60.050;18.582;2022-07-23T00:00:52;6.88;;;2.63;;
73283;SDS011;61519;60.050;18.582;2022-07-23T00:03:17;8.67;;;2.40;;
73283;SDS011;61519;60.050;18.582;2022-07-23T00:05:43;7.77;;;1.80;;
73283;SDS011;61519;60.050;18.582;2022-07-23T00:08:08;7.17;;;1.70;;
73283;SDS011;61519;60.050;18.582;2022-07-23T00:10:34;6.78;;;1.85;;
73283;SDS011;61519;60.050;18.582;2022-07-23T00:13:00;6.97;;;2.13;;
73283;SDS011;61519;60.050;18.582;2022-07-23T00:15:25;7.03;;;2.28;;
73283;SDS011;61519;60.050;18.582;2022-07-23T00:17:51;8.23;;;1.70;;
73283;SDS011;61519;60.050;18.582;2022-07-23T00:20:16;7.73;;;1.90;;
73283;SDS011;61519;60.050;18.582;2022-07-23T00:22:46;6.72;;;1.65;;
73283;SDS011;61519;60.050;18.582;2022-07-23T00:25:16;7.25;;;1.60;;
73283;SDS011;61519;60.050;18.582;2022-07-23T00:27:42;6.97;;;1.70;;
73283;SDS011;61519;60.050;18.582;2022-07-23T00:30:08;4.40;;;1.13;;
73283;SDS011;61519;60.050;18.582;2022-07-23T00:35:13;5.85;;;1.13;;
73283;SDS011;61519;60.050;18.582;2022-07-23T00:37:38;5.87;;;1.10;;
73283;SDS011;61519;60.050;18.582;2022-07-23T00:40:04;3.90;;;1.10;;
73283;SDS011;61519;60.050;18.582;2022-07-23T00:42:31;3.92;;;0.90;;
73283;SDS011;61519;60.050;18.582;2022-07-23T00:44:57;5.95;;;1.30;;
73283;SDS011;61519;60.050;18.582;2022-07-23T00:47:22;4.07;;;1.20;;
73283;SDS011;61519;60.050;18.582;2022-07-23T00:49:48;3.67;;;1.13;;
73283;SDS011;61519;60.050;18.582;2022-07-23T00:52:13;3.53;;;0.98;;
73283;SDS011;61519;60.050;18.582;2022-07-23T00:54:39;4.83;;;1.10;;
73283;SDS011;61519;60.050;18.582;2022-07-23T00:57:04;5.13;;;0.90;;
73283;SDS011;61519;60.050;18.582;2022-07-23T00:59:30;3.90;;;1.00;;
73283;SDS011;61519;60.050;18.582;2022-07-23T01:01:56;5.70;;;1.20;;
73283;SDS011;61519;60.050;18.582;2022-07-23T01:04:21;2.97;;;1.08;;
73283;SDS011;61519;60.050;18.582;2022-07-23T01:06:47;6.63;;;1.03;;
73283;SDS011;61519;60.050;18.582;2022-07-23T01:09:12;3.63;;;0.70;;
73283;SDS011;61519;60.050;18.582;2022-07-23T01:11:38;5.65;;;1.00;;
73283;SDS011;61519;60.050;18.582;2022-07-23T01:14:08;5.67;;;0.90;;
73283;SDS011;61519;60.050;18.582;2022-07-23T01:16:34;2.85;;;1.20;;
73283;SDS011;61519;60.050;18.582;2022-07-23T01:19:00;4.68;;;1.42;;
73283;SDS011;61519;60.050;18.582;2022-07-23T01:21:25;4.07;;;1.00;;
73283;SDS011;61519;60.050;18.582;2022-07-23T01:23:51;3.23;;;1.30;;
73283;SDS011;61519;60.050;18.582;2022-07-23T01:26:16;6.23;;;1.00;;
73283;SDS011;61519;60.050;18.582;2022-07-23T01:28:42;3.88;;;1.27;;
73283;SDS011;61519;60.050;18.582;2022-07-23T01:31:08;3.63;;;1.30;;
73283;SDS011;61519;60.050;18.582;2022-07-23T01:33:33;4.15;;;0.80;;
73283;SDS011;61519;60.050;18.582;2022-07-23T01:35:59;3.17;;;0.87;;
73283;SDS011;61519;60.050;18.582;2022-07-23T01:38:24;4.23;;;0.83;;
73283;SDS011;61519;60.050;18.582;2022-07-23T01:40:49;4.53;;;1.10;;
73283;SDS011;61519;60.050;18.582;2022-07-23T01:43:16;4.18;;;0.90;;
73283;SDS011;61519;60.050;18.582;2022-07-23T01:45:41;3.47;;;0.90;;
73283;SDS011;61519;60.050;18.582;2022-07-23T01:48:10;5.00;;;1.00;;
73283;SDS011;61519;60.050;18.582;2022-07-23T01:50:36;2.50;;;0.70;;
73283;SDS011;61519;60.050;18.582;2022-07-23T01:53:01;5.37;;;0.83;;
73283;SDS011;61519;60.050;18.582;2022-07-23T01:55:27;5.47;;;1.23;;
73283;SDS011;61519;60.050;18.582;2022-07-23T01:57:52;3.13;;;0.90;;
73283;SDS011;61519;60.050;18.582;2022-07-23T02:00:17;4.20;;;1.00;;
73283;SDS011;61519;60.050;18.582;2022-07-23T02:02:43;6.05;;;1.10;;
73283;SDS011;61519;60.050;18.582;2022-07-23T02:05:09;4.90;;;0.97;;
73283;SDS011;61519;60.050;18.582;2022-07-23T02:07:34;4.90;;;1.00;;
73283;SDS011;61519;60.050;18.582;2022-07-23T02:10:00;5.38;;;1.55;;
73283;SDS011;61519;60.050;18.582;2022-07-23T02:12:25;3.83;;;1.27;;
73283;SDS011;61519;60.050;18.582;2022-07-23T02:14:51;4.30;;;1.10;;
73283;SDS011;61519;60.050;18.582;2022-07-23T02:17:16;4.10;;;1.10;;
73283;SDS011;61519;60.050;18.582;2022-07-23T02:19:41;3.67;;;1.10;;
73283;SDS011;61519;60.050;18.582;2022-07-23T02:22:07;3.10;;;1.10;;
73283;SDS011;61519;60.050;18.582;2022-07-23T02:24:32;4.10;;;1.15;;
73283;SDS011;61519;60.050;18.582;2022-07-23T02:26:58;4.93;;;1.40;;
73283;SDS011;61519;60.050;18.582;2022-07-23T02:29:24;3.63;;;1.10;;
73283;SDS011;61519;60.050;18.582;2022-07-23T02:31:50;4.47;;;1.20;;
73283;SDS011;61519;60.050;18.582;2022-07-23T02:34:15;7.87;;;1.30;;
73283;SDS011;61519;60.050;18.582;2022-07-23T02:36:41;4.22;;;1.13;;
73283;SDS011;61519;60.050;18.582;2022-07-23T02:39:06;3.57;;;1.00;;
73283;SDS011;61519;60.050;18.582;2022-07-23T02:41:32;5.03;;;1.10;;
73283;SDS011;61519;60.050;18.582;2022-07-23T02:43:57;8.05;;;1.25;;
73283;SDS011;61519;60.050;18.582;2022-07-23T02:46:23;3.72;;;1.25;;
73283;SDS011;61519;60.050;18.582;2022-07-23T02:48:48;4.67;;;1.37;;
73283;SDS011;61519;60.050;18.582;2022-07-23T02:51:14;4.20;;;1.20;;
73283;SDS011;61519;60.050;18.582;2022-07-23T02:53:39;8.23;;;1.30;;
73283;SDS011;61519;60.050;18.582;2022-07-23T02:56:05;4.88;;;1.13;;
73283;SDS011;61519;60.050;18.582;2022-07-23T02:58:30;4.07;;;1.23;;
73283;SDS011;61519;60.050;18.582;2022-07-23T03:00:56;3.10;;;1.07;;
73283;SDS011;61519;60.050;18.582;2022-07-23T03:03:21;4.17;;;1.37;;
73283;SDS011;61519;60.050;18.582;2022-07-23T03:05:47;3.90;;;1.10;;
73283;SDS011;61519;60.050;18.582;2022-07-23T03:08:12;3.87;;;1.03;;
73283;SDS011;61519;60.050;18.582;2022-07-23T03:10:38;3.43;;;1.20;;
73283;SDS011;61519;60.050;18.582;2022-07-23T03:13:03;7.40;;;1.10;;
73283;SDS011;61519;60.050;18.582;2022-07-23T03:15:29;3.53;;;1.17;;
73283;SDS011;61519;60.050;18.582;2022-07-23T03:17:54;6.13;;;1.20;;
73283;SDS011;61519;60.050;18.582;2022-07-23T03:20:20;3.35;;;1.20;;
73283;SDS011;61519;60.050;18.582;2022-07-23T03:22:45;4.28;;;1.20;;
73283;SDS011;61519;60.050;18.582;2022-07-23T03:25:11;4.00;;;0.90;;
73283;SDS011;61519;60.050;18.582;2022-07-23T03:27:36;3.53;;;1.10;;
73283;SDS011;61519;60.050;18.582;2022-07-23T03:30:02;4.47;;;1.00;;
73283;SDS011;61519;60.050;18.582;2022-07-23T03:32:28;3.63;;;1.40;;
73283;SDS011;61519;60.050;18.582;2022-07-23T03:34:53;5.63;;;1.15;;
73283;SDS011;61519;60.050;18.582;2022-07-23T03:37:19;3.40;;;1.00;;
73283;SDS011;61519;60.050;18.582;2022-07-23T03:39:45;6.07;;;1.75;;
73283;SDS011;61519;60.050;18.582;2022-07-23T03:42:10;3.30;;;1.00;;
73283;SDS011;61519;60.050;18.582;2022-07-23T03:44:36;5.83;;;1.17;;
73283;SDS011;61519;60.050;18.582;2022-07-23T03:47:03;4.18;;;1.40;;
73283;SDS011;61519;60.050;18.582;2022-07-23T03:49:29;4.25;;;1.23;;
73283;SDS011;61519;60.050;18.582;2022-07-23T03:51:55;5.28;;;1.10;;
73283;SDS011;61519;60.050;18.582;2022-07-23T03:54:20;4.30;;;1.15;;
73283;SDS011;61519;60.050;18.582;2022-07-23T03:56:46;5.57;;;1.10;;
73283;SDS011;61519;60.050;18.582;2022-07-23T03:59:12;6.43;;;0.90;;
73283;SDS011;61519;60.050;18.582;2022-07-23T04:01:37;3.72;;;1.08;;
73283;SDS011;61519;60.050;18.582;2022-07-23T04:04:03;5.57;;;1.10;;
73283;SDS011;61519;60.050;18.582;2022-07-23T04:06:28;7.87;;;1.50;;
73283;SDS011;61519;60.050;18.582;2022-07-23T04:08:53;3.45;;;1.08;;
73283;SDS011;61519;60.050;18.582;2022-07-23T04:11:19;6.70;;;1.20;;
73283;SDS011;61519;60.050;18.582;2022-07-23T04:13:44;5.17;;;1.20;;
73283;SDS011;61519;60.050;18.582;2022-07-23T04:16:10;5.03;;;1.00;;
73283;SDS011;61519;60.050;18.582;2022-07-23T04:18:35;2.90;;;1.10;;
73283;SDS011;61519;60.050;18.582;2022-07-23T04:21:01;4.80;;;1.30;;
73283;SDS011;61519;60.050;18.582;2022-07-23T04:23:26;3.23;;;0.90;;
73283;SDS011;61519;60.050;18.582;2022-07-23T04:25:52;5.13;;;1.27;;
73283;SDS011;61519;60.050;18.582;2022-07-23T04:28:17;4.25;;;1.00;;
73283;SDS011;61519;60.050;18.582;2022-07-23T04:30:43;3.40;;;0.90;;
73283;SDS011;61519;60.050;18.582;2022-07-23T04:33:08;6.13;;;1.10;;
73283;SDS011;61519;60.050;18.582;2022-07-23T04:35:34;4.15;;;0.80;;
73283;SDS011;61519;60.050;18.582;2022-07-23T04:38:00;7.28;;;0.90;;
73283;SDS011;61519;60.050;18.582;2022-07-23T04:40:26;3.00;;;0.90;;
73283;SDS011;61519;60.050;18.582;2022-07-23T04:42:52;3.47;;;0.60;;
73283;SDS011;61519;60.050;18.582;2022-07-23T04:45:17;2.57;;;0.70;;
73283;SDS011;61519;60.050;18.582;2022-07-23T04:47:43;3.23;;;0.80;;
73283;SDS011;61519;60.050;18.582;2022-07-23T04:50:08;2.33;;;0.60;;
73283;SDS011;61519;60.050;18.582;2022-07-23T04:52:34;2.05;;;0.50;;
73283;SDS011;61519;60.050;18.582;2022-07-23T04:55:00;2.87;;;0.73;;
73283;SDS011;61519;60.050;18.582;2022-07-23T04:57:25;2.03;;;0.60;;
73283;SDS011;61519;60.050;18.582;2022-07-23T04:59:51;2.33;;;0.53;;
73283;SDS011;61519;60.050;18.582;2022-07-23T05:02:16;1.67;;;0.50;;
73283;SDS011;61519;60.050;18.582;2022-07-23T05:04:41;2.03;;;0.70;;
73283;SDS011;61519;60.050;18.582;2022-07-23T05:07:07;2.53;;;0.63;;
73283;SDS011;61519;60.050;18.582;2022-07-23T05:09:34;3.10;;;0.70;;
73283;SDS011;61519;60.050;18.582;2022-07-23T05:11:59;2.38;;;0.50;;
73283;SDS011;61519;60.050;18.582;2022-07-23T05:14:25;1.80;;;0.70;;
73283;SDS011;61519;60.050;18.582;2022-07-23T05:16:51;2.55;;;0.60;;
73283;SDS011;61519;60.050;18.582;2022-07-23T05:19:17;2.72;;;0.73;;
73283;SDS011;61519;60.050;18.582;2022-07-23T05:21:42;2.07;;;0.70;;
73283;SDS011;61519;60.050;18.582;2022-07-23T05:24:08;2.30;;;0.90;;
73283;SDS011;61519;60.050;18.582;2022-07-23T05:26:33;1.90;;;0.67;;
73283;SDS011;61519;60.050;18.582;2022-07-23T05:28:59;1.88;;;0.70;;
73283;SDS011;61519;60.050;18.582;2022-07-23T05:31:24;2.90;;;0.47;;
73283;SDS011;61519;60.050;18.582;2022-07-23T05:33:49;2.77;;;0.60;;
73283;SDS011;61519;60.050;18.582;2022-07-23T05:36:15;1.40;;;0.43;;
73283;SDS011;61519;60.050;18.582;2022-07-23T05:38:40;2.38;;;0.60;;
73283;SDS011;61519;60.050;18.582;2022-07-23T05:41:06;2.75;;;0.50;;
73283;SDS011;61519;60.050;18.582;2022-07-23T05:43:31;1.60;;;0.50;;
73283;SDS011;61519;60.050;18.582;2022-07-23T05:45:57;1.50;;;0.50;;
73283;SDS011;61519;60.050;18.582;2022-07-23T05:48:22;1.30;;;0.50;;
73283;SDS011;61519;60.050;18.582;2022-07-23T05:50:48;1.92;;;0.90;;
73283;SDS011;61519;60.050;18.582;2022-07-23T05:53:14;2.87;;;0.63;;
73283;SDS011;61519;60.050;18.582;2022-07-23T05:55:39;1.95;;;0.50;;
73283;SDS011;61519;60.050;18.582;2022-07-23T05:58:05;1.60;;;0.50;;
73283;SDS011;61519;60.050;18.582;2022-07-23T06:00:31;2.87;;;1.07;;
73283;SDS011;61519;60.050;18.582;2022-07-23T06:02:56;1.50;;;0.50;;
73283;SDS011;61519;60.050;18.582;2022-07-23T06:05:22;1.80;;;0.70;;
73283;SDS011;61519;60.050;18.582;2022-07-23T06:07:48;1.95;;;0.50;;
73283;SDS011;61519;60.050;18.582;2022-07-23T06:10:14;1.75;;;0.60;;
73283;SDS011;61519;60.050;18.582;2022-07-23T06:12:40;2.70;;;0.80;;
73283;SDS011;61519;60.050;18.582;2022-07-23T06:15:06;1.92;;;0.60;;
73283;SDS011;61519;60.050;18.582;2022-07-23T06:17:32;1.80;;;0.50;;
73283;SDS011;61519;60.050;18.582;2022-07-23T06:19:57;2.13;;;0.50;;
73283;SDS011;61519;60.050;18.582;2022-07-23T06:22:23;1.70;;;0.50;;
73283;SDS011;61519;60.050;18.582;2022-07-23T06:24:50;2.50;;;0.60;;
73283;SDS011;61519;60.050;18.582;2022-07-23T06:27:16;2.40;;;0.60;;
73283;SDS011;61519;60.050;18.582;2022-07-23T06:29:42;1.52;;;0.50;;
73283;SDS011;61519;60.050;18.582;2022-07-23T06:32:08;1.65;;;0.50;;
73283;SDS011;61519;60.050;18.582;2022-07-23T06:34:33;1.27;;;0.43;;
73283;SDS011;61519;60.050;18.582;2022-07-23T06:36:59;2.63;;;0.50;;
73283;SDS011;61519;60.050;18.582;2022-07-23T06:39:25;1.48;;;0.40;;
73283;SDS011;61519;60.050;18.582;2022-07-23T06:41:50;1.87;;;0.67;;
73283;SDS011;61519;60.050;18.582;2022-07-23T06:44:16;1.90;;;0.80;;
73283;SDS011;61519;60.050;18.582;2022-07-23T06:46:42;2.05;;;0.60;;
73283;SDS011;61519;60.050;18.582;2022-07-23T06:49:08;2.03;;;0.90;;
73283;SDS011;61519;60.050;18.582;2022-07-23T06:51:34;1.83;;;0.60;;
73283;SDS011;61519;60.050;18.582;2022-07-23T06:53:59;1.20;;;0.52;;
73283;SDS011;61519;60.050;18.582;2022-07-23T06:56:25;1.80;;;0.40;;
73283;SDS011;61519;60.050;18.582;2022-07-23T06:58:50;1.00;;;0.38;;
73283;SDS011;61519;60.050;18.582;2022-07-23T07:01:16;1.40;;;0.60;;
73283;SDS011;61519;60.050;18.582;2022-07-23T07:03:41;1.30;;;0.50;;
73283;SDS011;61519;60.050;18.582;2022-07-23T07:06:07;1.37;;;0.50;;
73283;SDS011;61519;60.050;18.582;2022-07-23T07:08:32;2.25;;;0.50;;
73283;SDS011;61519;60.050;18.582;2022-07-23T07:10:58;2.10;;;0.52;;
73283;SDS011;61519;60.050;18.582;2022-07-23T07:13:23;1.90;;;0.50;;
73283;SDS011;61519;60.050;18.582;2022-07-23T07:15:48;1.23;;;0.40;;
73283;SDS011;61519;60.050;18.582;2022-07-23T07:18:14;1.30;;;0.50;;
73283;SDS011;61519;60.050;18.582;2022-07-23T07:20:39;1.75;;;0.70;;
73283;SDS011;61519;60.050;18.582;2022-07-23T07:23:05;1.50;;;0.50;;
73283;SDS011;61519;60.050;18.582;2022-07-23T07:25:30;4.03;;;0.57;;
73283;SDS011;61519;60.050;18.582;2022-07-23T07:27:56;1.40;;;0.60;;
73283;SDS011;61519;60.050;18.582;2022-07-23T07:30:21;1.60;;;0.47;;
73283;SDS011;61519;60.050;18.582;2022-07-23T07:32:47;1.90;;;0.53;;
73283;SDS011;61519;60.050;18.582;2022-07-23T07:35:12;1.47;;;0.50;;
73283;SDS011;61519;60.050;18.582;2022-07-23T07:37:39;2.33;;;0.60;;
73283;SDS011;61519;60.050;18.582;2022-07-23T07:40:10;1.27;;;0.40;;
73283;SDS011;61519;60.050;18.582;2022-07-23T07:42:46;1.67;;;0.50;;
73283;SDS011;61519;60.050;18.582;2022-07-23T07:45:12;1.27;;;0.40;;
73283;SDS011;61519;60.050;18.582;2022-07-23T07:47:38;1.80;;;0.60;;
73283;SDS011;61519;60.050;18.582;2022-07-23T07:50:03;1.73;;;0.40;;
73283;SDS011;61519;60.050;18.582;2022-07-23T07:52:29;1.60;;;0.40;;
73283;SDS011;61519;60.050;18.582;2022-07-23T07:54:54;1.70;;;0.40;;
73283;SDS011;61519;60.050;18.582;2022-07-23T07:57:21;1.85;;;0.60;;
73283;SDS011;61519;60.050;18.582;2022-07-23T07:59:47;1.60;;;0.53;;
73283;SDS011;61519;60.050;18.582;2022-07-23T08:02:12;1.50;;;0.40;;
73283;SDS011;61519;60.050;18.582;2022-07-23T08:04:38;2.05;;;0.50;;
73283;SDS011;61519;60.050;18.582;2022-07-23T08:07:07;1.60;;;0.50;;
73283;SDS011;61519;60.050;18.582;2022-07-23T08:09:34;1.67;;;0.60;;
73283;SDS011;61519;60.050;18.582;2022-07-23T08:12:04;1.98;;;0.50;;
73283;SDS011;61519;60.050;18.582;2022-07-23T08:14:29;1.43;;;0.53;;
73283;SDS011;61519;60.050;18.582;2022-07-23T08:16:55;1.70;;;0.50;;
73283;SDS011;61519;60.050;18.582;2022-07-23T08:19:21;1.70;;;0.70;;
73283;SDS011;61519;60.050;18.582;2022-07-23T08:21:46;1.63;;;0.40;;
73283;SDS011;61519;60.050;18.582;2022-07-23T08:24:12;2.00;;;0.77;;
73283;SDS011;61519;60.050;18.582;2022-07-23T08:26:40;2.37;;;0.60;;
73283;SDS011;61519;60.050;18.582;2022-07-23T08:29:06;2.15;;;0.80;;
73283;SDS011;61519;60.050;18.582;2022-07-23T08:31:32;2.60;;;0.70;;
73283;SDS011;61519;60.050;18.582;2022-07-23T08:33:58;2.40;;;0.70;;
73283;SDS011;61519;60.050;18.582;2022-07-23T08:36:27;2.33;;;0.60;;
73283;SDS011;61519;60.050;18.582;2022-07-23T08:38:56;2.70;;;0.60;;
73283;SDS011;61519;60.050;18.582;2022-07-23T08:41:22;3.00;;;0.60;;
73283;SDS011;61519;60.050;18.582;2022-07-23T08:43:47;3.45;;;0.70;;
73283;SDS011;61519;60.050;18.582;2022-07-23T08:46:13;2.10;;;0.77;;
73283;SDS011;61519;60.050;18.582;2022-07-23T08:48:39;1.97;;;0.60;;
73283;SDS011;61519;60.050;18.582;2022-07-23T08:51:05;2.35;;;0.63;;
73283;SDS011;61519;60.050;18.582;2022-07-23T08:53:31;1.77;;;0.70;;
73283;SDS011;61519;60.050;18.582;2022-07-23T08:55:59;1.85;;;0.75;;
73283;SDS011;61519;60.050;18.582;2022-07-23T08:58:26;2.43;;;0.60;;
73283;SDS011;61519;60.050;18.582;2022-07-23T09:00:52;1.80;;;0.55;;
73283;SDS011;61519;60.050;18.582;2022-07-23T09:03:19;2.33;;;0.70;;
73283;SDS011;61519;60.050;18.582;2022-07-23T09:05:46;1.58;;;0.50;;
73283;SDS011;61519;60.050;18.582;2022-07-23T09:08:13;1.80;;;0.50;;
73283;SDS011;61519;60.050;18.582;2022-07-23T09:10:47;2.08;;;0.65;;
73283;SDS011;61519;60.050;18.582;2022-07-23T09:15:50;2.20;;;0.77;;
73283;SDS011;61519;60.050;18.582;2022-07-23T09:18:16;1.45;;;0.63;;
73283;SDS011;61519;60.050;18.582;2022-07-23T09:20:43;1.58;;;0.60;;
73283;SDS011;61519;60.050;18.582;2022-07-23T09:23:09;2.03;;;0.60;;
73283;SDS011;61519;60.050;18.582;2022-07-23T09:25:34;3.00;;;0.65;;
73283;SDS011;61519;60.050;18.582;2022-07-23T09:28:01;4.60;;;0.83;;
73283;SDS011;61519;60.050;18.582;2022-07-23T09:30:32;3.95;;;0.60;;
73283;SDS011;61519;60.050;18.582;2022-07-23T09:38:16;2.47;;;0.70;;
73283;SDS011;61519;60.050;18.582;2022-07-23T09:40:42;2.33;;;0.55;;
73283;SDS011;61519;60.050;18.582;2022-07-23T09:43:08;1.63;;;0.50;;
73283;SDS011;61519;60.050;18.582;2022-07-23T09:45:34;1.87;;;0.50;;
73283;SDS011;61519;60.050;18.582;2022-07-23T09:48:13;1.98;;;0.70;;
73283;SDS011;61519;60.050;18.582;2022-07-23T09:50:43;3.35;;;0.90;;
73283;SDS011;61519;60.050;18.582;2022-07-23T09:53:09;2.63;;;0.90;;
73283;SDS011;61519;60.050;18.582;2022-07-23T09:55:38;2.95;;;0.93;;
73283;SDS011;61519;60.050;18.582;2022-07-23T09:58:07;2.33;;;0.82;;
73283;SDS011;61519;60.050;18.582;2022-07-23T10:00:42;3.08;;;0.90;;
73283;SDS011;61519;60.050;18.582;2022-07-23T10:03:09;3.00;;;0.70;;
73283;SDS011;61519;60.050;18.582;2022-07-23T10:05:36;4.90;;;0.85;;
73283;SDS011;61519;60.050;18.582;2022-07-23T10:08:02;3.17;;;1.05;;
73283;SDS011;61519;60.050;18.582;2022-07-23T10:10:28;2.33;;;0.80;;
73283;SDS011;61519;60.050;18.582;2022-07-23T10:12:55;2.60;;;0.70;;
73283;SDS011;61519;60.050;18.582;2022-07-23T10:15:26;4.10;;;0.80;;
73283;SDS011;61519;60.050;18.582;2022-07-23T10:17:52;2.67;;;0.90;;
73283;SDS011;61519;60.050;18.582;2022-07-23T10:20:18;4.10;;;0.90;;
73283;SDS011;61519;60.050;18.582;2022-07-23T10:22:48;3.10;;;0.90;;
73283;SDS011;61519;60.050;18.582;2022-07-23T10:30:51;5.68;;;1.50;;
73283;SDS011;61519;60.050;18.582;2022-07-23T10:39:46;2.38;;;0.70;;
73283;SDS011;61519;60.050;18.582;2022-07-23T10:42:12;3.72;;;0.90;;
73283;SDS011;61519;60.050;18.582;2022-07-23T10:44:43;3.85;;;0.80;;
73283;SDS011;61519;60.050;18.582;2022-07-23T10:47:11;3.35;;;1.00;;
73283;SDS011;61519;60.050;18.582;2022-07-23T10:49:42;2.97;;;0.82;;
73283;SDS011;61519;60.050;18.582;2022-07-23T10:52:15;3.72;;;0.93;;
73283;SDS011;61519;60.050;18.582;2022-07-23T10:54:45;3.45;;;1.10;;
73283;SDS011;61519;60.050;18.582;2022-07-23T10:57:46;3.15;;;1.35;;
73283;SDS011;61519;60.050;18.582;2022-07-23T11:00:25;2.80;;;0.75;;
73283;SDS011;61519;60.050;18.582;2022-07-23T11:02:55;3.45;;;1.10;;
73283;SDS011;61519;60.050;18.582;2022-07-23T11:05:45;2.37;;;0.80;;
73283;SDS011;61519;60.050;18.582;2022-07-23T11:08:14;3.65;;;0.90;;
73283;SDS011;61519;60.050;18.582;2022-07-23T11:32:22;6.20;;;1.30;;
73283;SDS011;61519;60.050;18.582;2022-07-23T11:34:50;3.65;;;1.02;;
73283;SDS011;61519;60.050;18.582;2022-07-23T11:40:04;3.53;;;1.00;;
73283;SDS011;61519;60.050;18.582;2022-07-23T11:42:36;5.60;;;1.58;;
73283;SDS011;61519;60.050;18.582;2022-07-23T11:45:05;4.17;;;1.17;;
73283;SDS011;61519;60.050;18.582;2022-07-23T11:47:32;6.18;;;2.30;;
73283;SDS011;61519;60.050;18.582;2022-07-23T11:49:58;4.43;;;1.30;;
73283;SDS011;61519;60.050;18.582;2022-07-23T11:52:26;3.08;;;1.15;;
73283;SDS011;61519;60.050;18.582;2022-07-23T11:54:59;4.10;;;1.02;;
73283;SDS011;61519;60.050;18.582;2022-07-23T11:57:32;2.65;;;1.13;;
73283;SDS011;61519;60.050;18.582;2022-07-23T12:00:01;6.07;;;1.30;;
73283;SDS011;61519;60.050;18.582;2022-07-23T12:02:27;4.53;;;1.00;;
73283;SDS011;61519;60.050;18.582;2022-07-23T12:04:53;4.32;;;1.02;;
73283;SDS011;61519;60.050;18.582;2022-07-23T12:07:32;3.60;;;1.13;;
73283;SDS011;61519;60.050;18.582;2022-07-23T12:10:00;4.70;;;1.10;;
73283;SDS011;61519;60.050;18.582;2022-07-23T12:12:47;4.95;;;1.10;;
73283;SDS011;61519;60.050;18.582;2022-07-23T12:15:15;4.20;;;1.42;;
73283;SDS011;61519;60.050;18.582;2022-07-23T12:17:43;4.85;;;1.40;;
73283;SDS011;61519;60.050;18.582;2022-07-23T12:20:11;3.95;;;1.02;;
73283;SDS011;61519;60.050;18.582;2022-07-23T12:22:39;5.67;;;1.30;;
73283;SDS011;61519;60.050;18.582;2022-07-23T12:25:14;5.13;;;0.95;;
73283;SDS011;61519;60.050;18.582;2022-07-23T12:27:43;5.78;;;1.25;;
73283;SDS011;61519;60.050;18.582;2022-07-23T12:30:19;5.63;;;1.42;;
73283;SDS011;61519;60.050;18.582;2022-07-23T12:32:50;3.47;;;0.95;;
73283;SDS011;61519;60.050;18.582;2022-07-23T12:35:18;3.77;;;1.37;;
73283;SDS011;61519;60.050;18.582;2022-07-23T12:37:45;3.85;;;0.93;;
73283;SDS011;61519;60.050;18.582;2022-07-23T12:40:27;3.58;;;1.00;;
73283;SDS011;61519;60.050;18.582;2022-07-23T12:43:01;4.65;;;1.23;;
73283;SDS011;61519;60.050;18.582;2022-07-23T12:45:41;3.65;;;1.10;;
73283;SDS011;61519;60.050;18.582;2022-07-23T12:48:08;2.97;;;0.80;;
73283;SDS011;61519;60.050;18.582;2022-07-23T12:50:48;3.63;;;0.90;;
73283;SDS011;61519;60.050;18.582;2022-07-23T12:53:23;3.42;;;0.90;;
73283;SDS011;61519;60.050;18.582;2022-07-23T12:56:28;3.03;;;1.35;;
73283;SDS011;61519;60.050;18.582;2022-07-23T12:58:56;2.75;;;1.00;;
73283;SDS011;61519;60.050;18.582;2022-07-23T13:01:30;3.93;;;1.20;;
73283;SDS011;61519;60.050;18.582;2022-07-23T13:04:01;4.28;;;1.27;;
73283;SDS011;61519;60.050;18.582;2022-07-23T13:06:37;2.38;;;0.80;;
73283;SDS011;61519;60.050;18.582;2022-07-23T13:09:06;2.92;;;1.00;;
73283;SDS011;61519;60.050;18.582;2022-07-23T13:11:33;2.83;;;1.00;;
73283;SDS011;61519;60.050;18.582;2022-07-23T13:13:59;3.93;;;0.80;;
73283;SDS011;61519;60.050;18.582;2022-07-23T13:16:26;2.92;;;0.80;;
73283;SDS011;61519;60.050;18.582;2022-07-23T13:18:52;2.83;;;0.90;;
73283;SDS011;61519;60.050;18.582;2022-07-23T13:21:17;2.50;;;0.90;;
73283;SDS011;61519;60.050;18.582;2022-07-23T13:23:43;3.13;;;1.10;;
73283;SDS011;61519;60.050;18.582;2022-07-23T13:26:08;2.63;;;0.80;;
73283;SDS011;61519;60.050;18.582;2022-07-23T13:28:34;2.53;;;0.93;;
73283;SDS011;61519;60.050;18.582;2022-07-23T13:30:59;3.23;;;1.10;;
73283;SDS011;61519;60.050;18.582;2022-07-23T13:33:25;2.83;;;0.90;;
73283;SDS011;61519;60.050;18.582;2022-07-23T13:35:51;2.53;;;1.00;;
73283;SDS011;61519;60.050;18.582;2022-07-23T13:38:18;3.58;;;1.23;;
73283;SDS011;61519;60.050;18.582;2022-07-23T13:40:46;2.55;;;1.05;;
73283;SDS011;61519;60.050;18.582;2022-07-23T13:43:14;4.30;;;0.90;;
73283;SDS011;61519;60.050;18.582;2022-07-23T13:45:41;5.65;;;1.08;;
73283;SDS011;61519;60.050;18.582;2022-07-23T13:48:10;4.38;;;0.85;;
73283;SDS011;61519;60.050;18.582;2022-07-23T13:50:37;4.15;;;1.17;;
73283;SDS011;61519;60.050;18.582;2022-07-23T13:53:03;3.03;;;0.90;;
73283;SDS011;61519;60.050;18.582;2022-07-23T13:55:32;2.53;;;1.17;;
73283;SDS011;61519;60.050;18.582;2022-07-23T13:57:59;2.80;;;1.25;;
73283;SDS011;61519;60.050;18.582;2022-07-23T14:00:24;3.83;;;1.52;;
73283;SDS011;61519;60.050;18.582;2022-07-23T14:02:50;2.95;;;1.30;;
73283;SDS011;61519;60.050;18.582;2022-07-23T14:05:16;2.50;;;0.80;;
73283;SDS011;61519;60.050;18.582;2022-07-23T14:07:42;2.13;;;0.90;;
73283;SDS011;61519;60.050;18.582;2022-07-23T14:10:10;3.30;;;1.13;;
73283;SDS011;61519;60.050;18.582;2022-07-23T14:12:36;3.10;;;1.23;;
73283;SDS011;61519;60.050;18.582;2022-07-23T14:15:03;3.40;;;1.05;;
73283;SDS011;61519;60.050;18.582;2022-07-23T14:17:29;3.03;;;1.05;;
73283;SDS011;61519;60.050;18.582;2022-07-23T14:19:55;2.83;;;0.87;;
73283;SDS011;61519;60.050;18.582;2022-07-23T14:22:20;2.90;;;1.08;;
73283;SDS011;61519;60.050;18.582;2022-07-23T14:24:46;4.97;;;1.07;;
73283;SDS011;61519;60.050;18.582;2022-07-23T14:27:11;3.65;;;1.13;;
73283;SDS011;61519;60.050;18.582;2022-07-23T14:29:37;2.88;;;0.80;;
73283;SDS011;61519;60.050;18.582;2022-07-23T14:32:03;2.70;;;1.00;;
73283;SDS011;61519;60.050;18.582;2022-07-23T14:34:28;3.15;;;1.25;;
73283;SDS011;61519;60.050;18.582;2022-07-23T14:36:54;2.57;;;1.00;;
73283;SDS011;61519;60.050;18.582;2022-07-23T14:39:20;2.30;;;1.08;;
73283;SDS011;61519;60.050;18.582;2022-07-23T14:41:45;2.90;;;0.90;;
73283;SDS011;61519;60.050;18.582;2022-07-23T14:44:11;2.97;;;1.30;;
73283;SDS011;61519;60.050;18.582;2022-07-23T14:46:36;3.03;;;0.90;;
73283;SDS011;61519;60.050;18.582;2022-07-23T14:49:02;2.88;;;0.90;;
73283;SDS011;61519;60.050;18.582;2022-07-23T14:51:27;3.60;;;1.13;;
73283;SDS011;61519;60.050;18.582;2022-07-23T14:53:52;2.93;;;1.23;;
73283;SDS011;61519;60.050;18.582;2022-07-23T14:56:18;3.10;;;1.00;;
73283;SDS011;61519;60.050;18.582;2022-07-23T14:58:43;5.32;;;1.23;;
73283;SDS011;61519;60.050;18.582;2022-07-23T15:01:09;3.77;;;1.10;;
73283;SDS011;61519;60.050;18.582;2022-07-23T15:03:35;3.37;;;0.80;;
73283;SDS011;61519;60.050;18.582;2022-07-23T15:06:00;3.47;;;0.98;;
73283;SDS011;61519;60.050;18.582;2022-07-23T15:08:25;2.92;;;1.25;;
73283;SDS011;61519;60.050;18.582;2022-07-23T15:10:51;2.93;;;1.17;;
73283;SDS011;61519;60.050;18.582;2022-07-23T15:13:17;3.13;;;0.90;;
73283;SDS011;61519;60.050;18.582;2022-07-23T15:15:42;3.58;;;1.30;;
73283;SDS011;61519;60.050;18.582;2022-07-23T15:18:08;2.50;;;0.80;;